Time;durP1;ratioP1;P1;durP2;ratioP2;P2;SDS_P1;SDS_P2;PMS_P1;PMS_P2;Temp;Humidity;BMP_temperature;BMP_pressure;BME280_temperature;BME280_humidity;BME280_pressure;Samples;Min_cycle;Max_cycle;Signal;HPM_P1;HPM_P2
2022/08/09 00:02:05;;;;;;;1.67;1.40;;;;;;;;;;5051228;28;20222;-36
2022/08/09 00:04:33;;;;;;;1.92;1.00;;;;;;;;;;5053455;28;20341;-35
2022/08/09 00:07:01;;;;;;;1.15;1.15;;;;;;;;;;5046548;28;20234;-33
2022/08/09 00:09:28;;;;;;;1.05;1.05;;;;;;;;;;5052229;28;20264;-37
2022/08/09 00:11:55;;;;;;;1.40;1.30;;;;;;;;;;5052177;28;20241;-37
2022/08/09 00:14:24;;;;;;;1.00;1.00;;;;;;;;;;5052223;28;20643;-39
2022/08/09 00:16:51;;;;;;;2.00;1.30;;;;;;;;;;5045694;28;20255;-36
2022/08/09 00:19:18;;;;;;;1.08;1.05;;;;;;;;;;5044047;28;20206;-36
2022/08/09 00:21:45;;;;;;;0.97;0.97;;;;;;;;;;5041872;28;20254;-37
2022/08/09 00:24:13;;;;;;;1.00;1.00;;;;;;;;;;5050691;28;20206;-34
2022/08/09 00:26:40;;;;;;;1.00;1.00;;;;;;;;;;5052323;28;20224;-37
2022/08/09 00:29:07;;;;;;;1.40;1.30;;;;;;;;;;5051728;28;20204;-35
2022/08/09 00:31:35;;;;;;;1.67;1.20;;;;;;;;;;5042466;28;20309;-34
2022/08/09 00:34:03;;;;;;;1.10;1.10;;;;;;;;;;5050273;28;20202;-32
2022/08/09 00:36:30;;;;;;;1.77;1.30;;;;;;;;;;5047070;28;20648;-36
2022/08/09 00:38:57;;;;;;;1.40;1.30;;;;;;;;;;5046467;28;20205;-35
2022/08/09 00:41:24;;;;;;;1.07;1.07;;;;;;;;;;5051316;28;20225;-34
2022/08/09 00:43:51;;;;;;;1.20;1.20;;;;;;;;;;5047593;28;20203;-38
2022/08/09 00:46:19;;;;;;;1.27;1.17;;;;;;;;;;5050534;28;20213;-33
2022/08/09 00:48:47;;;;;;;1.30;1.20;;;;;;;;;;5050555;28;21613;-35
2022/08/09 00:51:16;;;;;;;1.23;1.13;;;;;;;;;;5044774;28;20208;-37
2022/08/09 00:53:44;;;;;;;2.03;1.20;;;;;;;;;;5048606;28;20216;-37
2022/08/09 00:56:12;;;;;;;1.00;1.00;;;;;;;;;;5051450;28;20206;-34
2022/08/09 00:58:39;;;;;;;1.30;1.20;;;;;;;;;;5051431;28;20212;-34
2022/08/09 01:01:11;;;;;;;1.43;1.33;;;;;;;;;;5044093;28;20213;-37
2022/08/09 01:03:42;;;;;;;1.77;1.30;;;;;;;;;;5051707;28;20213;-35
2022/08/09 01:06:13;;;;;;;1.47;1.30;;;;;;;;;;5046749;28;20198;-35
2022/08/09 01:08:43;;;;;;;1.93;1.00;;;;;;;;;;5046631;28;20236;-35
2022/08/09 01:11:18;;;;;;;1.70;1.20;;;;;;;;;;5051039;28;20233;-36
2022/08/09 01:13:50;;;;;;;2.33;1.33;;;;;;;;;;5051020;28;20213;-34
2022/08/09 01:16:17;;;;;;;1.23;1.20;;;;;;;;;;5047775;28;20233;-37
2022/08/09 01:18:47;;;;;;;0.97;0.97;;;;;;;;;;5042268;28;20236;-35
2022/08/09 01:21:21;;;;;;;1.03;1.03;;;;;;;;;;5046523;28;20212;-39
2022/08/09 01:23:57;;;;;;;3.07;1.17;;;;;;;;;;5049170;28;20212;-36
2022/08/09 01:26:45;;;;;;;1.10;1.10;;;;;;;;;;5044365;28;20204;-36
2022/08/09 01:29:13;;;;;;;1.30;1.27;;;;;;;;;;5050986;28;20190;-37
2022/08/09 01:31:42;;;;;;;1.47;1.20;;;;;;;;;;5044965;28;20277;-34
2022/08/09 01:34:12;;;;;;;1.50;1.30;;;;;;;;;;5051317;28;20213;-33
2022/08/09 01:36:41;;;;;;;2.40;1.23;;;;;;;;;;5048208;28;20229;-33
2022/08/09 01:39:09;;;;;;;3.07;1.20;;;;;;;;;;5049096;28;20300;-38
2022/08/09 01:41:40;;;;;;;1.20;1.10;;;;;;;;;;5050827;28;20202;-38
2022/08/09 01:44:09;;;;;;;3.20;1.17;;;;;;;;;;5050534;28;20213;-35
2022/08/09 01:46:39;;;;;;;1.50;1.40;;;;;;;;;;5044791;28;20233;-36
2022/08/09 01:49:07;;;;;;;1.10;1.10;;;;;;;;;;5044093;28;20212;-34
2022/08/09 01:51:35;;;;;;;3.40;1.23;;;;;;;;;;5046477;28;20205;-32
2022/08/09 01:54:03;;;;;;;0.90;0.90;;;;;;;;;;5046808;28;20205;-34
2022/08/09 01:56:31;;;;;;;1.07;1.07;;;;;;;;;;5050358;28;20198;-33
2022/08/09 01:58:59;;;;;;;1.43;1.00;;;;;;;;;;5049983;28;20706;-35
2022/08/09 02:01:29;;;;;;;1.47;1.37;;;;;;;;;;5045317;28;20220;-39
2022/08/09 02:03:57;;;;;;;1.20;1.10;;;;;;;;;;5043629;28;20205;-35
2022/08/09 02:09:09;;;;;;;1.20;1.20;;;;;;;;;;5046907;28;20209;-37
2022/08/09 02:11:36;;;;;;;1.50;1.40;;;;;;;;;;5048275;28;20202;-32
2022/08/09 02:14:04;;;;;;;1.33;1.33;;;;;;;;;;5040023;28;20203;-36
2022/08/09 02:16:34;;;;;;;1.97;1.40;;;;;;;;;;5041908;28;20206;-34
2022/08/09 02:19:02;;;;;;;1.30;1.30;;;;;;;;;;5046969;28;20209;-37
2022/08/09 02:21:30;;;;;;;1.70;1.40;;;;;;;;;;5041074;28;20206;-35
2022/08/09 02:23:58;;;;;;;2.00;1.40;;;;;;;;;;5046191;28;20205;-34
2022/08/09 02:26:26;;;;;;;1.10;1.10;;;;;;;;;;5048731;28;20266;-34
2022/08/09 02:28:55;;;;;;;1.47;1.37;;;;;;;;;;5049341;28;20205;-36
2022/08/09 02:31:25;;;;;;;1.47;1.30;;;;;;;;;;5038166;28;20221;-39
2022/08/09 02:33:55;;;;;;;1.40;1.30;;;;;;;;;;5042200;28;20217;-34
2022/08/09 02:36:23;;;;;;;1.20;1.20;;;;;;;;;;5041618;28;20220;-34
2022/08/09 02:38:52;;;;;;;2.40;1.10;;;;;;;;;;5045513;28;20205;-35
2022/08/09 02:41:22;;;;;;;1.70;1.10;;;;;;;;;;5048839;28;20281;-35
2022/08/09 02:43:51;;;;;;;1.50;1.20;;;;;;;;;;5049238;28;20602;-36
2022/08/09 02:46:18;;;;;;;2.20;1.40;;;;;;;;;;5037827;28;20202;-33
2022/08/09 02:48:46;;;;;;;1.23;1.23;;;;;;;;;;5048431;28;20213;-32
2022/08/09 02:51:18;;;;;;;1.50;1.40;;;;;;;;;;5046234;28;20552;-34
2022/08/09 02:53:48;;;;;;;1.10;1.10;;;;;;;;;;5045842;28;20213;-36
2022/08/09 02:56:16;;;;;;;1.57;1.47;;;;;;;;;;5049326;28;20212;-37
2022/08/09 02:58:43;;;;;;;1.57;1.47;;;;;;;;;;5045791;28;20208;-34
2022/08/09 03:01:11;;;;;;;2.27;1.40;;;;;;;;;;5041063;28;20208;-32
2022/08/09 03:03:39;;;;;;;1.17;1.00;;;;;;;;;;5048165;28;20289;-37
2022/08/09 03:06:06;;;;;;;1.10;1.10;;;;;;;;;;5045395;28;20210;-34
2022/08/09 03:08:36;;;;;;;1.70;1.33;;;;;;;;;;5045954;28;20581;-35
2022/08/09 03:11:04;;;;;;;1.33;1.30;;;;;;;;;;5048935;28;20204;-32
2022/08/09 03:13:31;;;;;;;2.03;1.30;;;;;;;;;;5048786;28;20216;-38
2022/08/09 03:15:59;;;;;;;1.53;1.43;;;;;;;;;;5042454;28;20214;-32
2022/08/09 03:18:27;;;;;;;1.40;1.30;;;;;;;;;;5041930;28;20233;-36
2022/08/09 03:20:55;;;;;;;1.40;1.30;;;;;;;;;;5044708;28;20272;-34
2022/08/09 03:23:22;;;;;;;1.80;1.70;;;;;;;;;;5046783;28;20245;-38
2022/08/09 03:25:51;;;;;;;1.73;1.43;;;;;;;;;;5048319;28;20210;-36
2022/08/09 03:28:19;;;;;;;1.80;1.70;;;;;;;;;;5048915;28;20240;-36
2022/08/09 03:33:15;;;;;;;4.30;1.77;;;;;;;;;;4995956;28;20223;-39
2022/08/09 03:35:42;;;;;;;1.67;1.57;;;;;;;;;;5001632;28;20211;-39
2022/08/09 03:38:09;;;;;;;1.50;1.50;;;;;;;;;;4996028;28;20238;-43
2022/08/09 03:40:36;;;;;;;1.67;1.57;;;;;;;;;;5010468;28;20196;-40
2022/08/09 03:43:05;;;;;;;2.67;1.50;;;;;;;;;;5009034;28;20229;-42
2022/08/09 03:45:34;;;;;;;1.70;1.60;;;;;;;;;;5002883;28;20210;-39
2022/08/09 03:48:01;;;;;;;1.83;1.40;;;;;;;;;;5000652;28;20227;-36
2022/08/09 03:50:29;;;;;;;2.57;1.80;;;;;;;;;;5005792;28;20207;-37
2022/08/09 03:52:58;;;;;;;2.10;1.90;;;;;;;;;;4995887;28;20214;-38
2022/08/09 03:55:25;;;;;;;2.87;2.03;;;;;;;;;;5007457;28;20212;-34
2022/08/09 03:57:53;;;;;;;3.43;1.40;;;;;;;;;;4992590;28;20223;-40
2022/08/09 04:00:21;;;;;;;1.87;1.40;;;;;;;;;;4991891;28;20229;-39
2022/08/09 04:02:49;;;;;;;2.03;1.93;;;;;;;;;;5000080;28;20242;-40
2022/08/09 04:05:16;;;;;;;2.00;1.90;;;;;;;;;;5000106;28;20202;-37
2022/08/09 04:07:43;;;;;;;1.60;1.50;;;;;;;;;;5000727;28;20239;-32
2022/08/09 04:10:10;;;;;;;2.50;1.87;;;;;;;;;;5004515;28;20213;-40
2022/08/09 04:12:43;;;;;;;1.47;1.37;;;;;;;;;;5006153;28;20697;-38
2022/08/09 04:15:10;;;;;;;1.57;1.47;;;;;;;;;;4995661;28;20215;-38
2022/08/09 04:17:39;;;;;;;2.93;1.40;;;;;;;;;;4992550;28;20230;-38
2022/08/09 04:20:06;;;;;;;2.13;1.80;;;;;;;;;;5003337;28;20228;-37
2022/08/09 04:22:34;;;;;;;1.20;1.20;;;;;;;;;;5002822;28;20228;-38
2022/08/09 04:25:01;;;;;;;2.03;1.60;;;;;;;;;;5009888;28;20214;-35
2022/08/09 04:27:28;;;;;;;1.80;1.70;;;;;;;;;;4994317;28;20231;-39
2022/08/09 04:29:55;;;;;;;1.40;1.40;;;;;;;;;;4998611;28;20209;-39
2022/08/09 04:32:23;;;;;;;2.03;1.70;;;;;;;;;;4993403;28;20217;-39
2022/08/09 04:34:51;;;;;;;1.63;1.50;;;;;;;;;;5009536;28;20219;-33
2022/08/09 04:37:18;;;;;;;2.60;1.60;;;;;;;;;;4999603;28;20238;-37
2022/08/09 04:40:01;;;;;;;1.93;1.60;;;;;;;;;;4997940;28;20242;-41
2022/08/09 04:42:29;;;;;;;2.27;2.17;;;;;;;;;;4996946;28;20217;-36
2022/08/09 04:44:57;;;;;;;1.60;1.50;;;;;;;;;;4994950;28;20209;-37
2022/08/09 04:47:27;;;;;;;1.70;1.60;;;;;;;;;;4997736;28;20236;-38
2022/08/09 04:49:56;;;;;;;1.67;1.57;;;;;;;;;;5004424;28;20205;-34
2022/08/09 04:52:24;;;;;;;1.90;1.53;;;;;;;;;;4999314;28;20213;-35
2022/08/09 04:54:51;;;;;;;1.83;1.37;;;;;;;;;;5014292;28;20213;-38
2022/08/09 04:57:18;;;;;;;1.60;1.50;;;;;;;;;;5014657;28;20226;-37
2022/08/09 04:59:49;;;;;;;2.97;1.80;;;;;;;;;;5007675;28;20213;-35
2022/08/09 05:02:16;;;;;;;3.43;1.80;;;;;;;;;;5005926;28;20290;-42
2022/08/09 05:04:43;;;;;;;2.43;2.13;;;;;;;;;;4994687;28;20231;-39
2022/08/09 05:07:11;;;;;;;2.17;1.97;;;;;;;;;;4997432;28;20238;-38
2022/08/09 05:09:38;;;;;;;2.20;1.60;;;;;;;;;;5007153;28;20211;-36
2022/08/09 05:12:06;;;;;;;2.00;1.80;;;;;;;;;;5002833;28;20216;-36
2022/08/09 05:14:34;;;;;;;2.47;1.70;;;;;;;;;;5001711;28;20265;-37
2022/08/09 05:17:01;;;;;;;2.10;1.87;;;;;;;;;;5013837;28;20237;-36
2022/08/09 05:19:28;;;;;;;1.87;1.70;;;;;;;;;;5013963;28;20214;-39
2022/08/09 05:21:56;;;;;;;1.80;1.70;;;;;;;;;;5003889;28;20292;-38
2022/08/09 05:24:24;;;;;;;1.87;1.77;;;;;;;;;;5011859;28;20229;-38
2022/08/09 05:26:51;;;;;;;2.00;1.90;;;;;;;;;;5014065;28;20225;-40
2022/08/09 05:29:19;;;;;;;1.90;1.80;;;;;;;;;;5004175;28;20221;-37
2022/08/09 05:31:46;;;;;;;3.33;2.03;;;;;;;;;;4994254;28;20244;-35
2022/08/09 05:34:14;;;;;;;2.07;1.90;;;;;;;;;;4993617;28;20207;-35
2022/08/09 05:36:41;;;;;;;2.67;2.10;;;;;;;;;;4994132;28;20226;-38
2022/08/09 05:39:08;;;;;;;2.30;2.20;;;;;;;;;;5003682;28;20261;-35
2022/08/09 05:41:37;;;;;;;2.47;2.20;;;;;;;;;;4999521;28;20218;-42
2022/08/09 05:44:04;;;;;;;1.83;1.73;;;;;;;;;;4994613;28;20237;-34
2022/08/09 05:46:32;;;;;;;2.60;2.10;;;;;;;;;;4996680;28;20214;-40
2022/08/09 05:48:59;;;;;;;2.30;2.10;;;;;;;;;;4997486;28;20210;-41
2022/08/09 05:51:26;;;;;;;4.40;1.93;;;;;;;;;;5004590;28;20214;-39
2022/08/09 05:53:53;;;;;;;2.07;1.97;;;;;;;;;;4993332;28;20294;-39
2022/08/09 05:56:20;;;;;;;3.50;2.60;;;;;;;;;;5008989;28;20209;-38
2022/08/09 05:58:49;;;;;;;3.80;2.30;;;;;;;;;;5011196;28;20209;-33
2022/08/09 06:01:17;;;;;;;2.17;2.07;;;;;;;;;;5005812;28;20829;-39
2022/08/09 06:03:44;;;;;;;2.70;2.00;;;;;;;;;;5007870;28;20316;-37
2022/08/09 06:06:11;;;;;;;2.07;1.97;;;;;;;;;;5008085;28;20211;-33
2022/08/09 06:08:38;;;;;;;2.33;2.10;;;;;;;;;;4998958;28;20288;-38
2022/08/09 06:11:05;;;;;;;2.60;2.37;;;;;;;;;;5002353;28;20242;-36
2022/08/09 06:13:32;;;;;;;5.50;2.77;;;;;;;;;;4992625;28;20207;-40
2022/08/09 06:16:01;;;;;;;4.90;2.17;;;;;;;;;;4998071;28;20208;-33
2022/08/09 06:18:28;;;;;;;4.27;2.30;;;;;;;;;;5012311;28;20277;-34
2022/08/09 06:20:56;;;;;;;3.60;2.70;;;;;;;;;;5009128;28;20301;-38
2022/08/09 06:23:23;;;;;;;3.43;2.40;;;;;;;;;;5006488;28;20226;-37
2022/08/09 06:25:50;;;;;;;4.30;2.20;;;;;;;;;;5012611;28;20221;-34
2022/08/09 06:28:17;;;;;;;2.50;2.30;;;;;;;;;;5012710;28;20229;-37
2022/08/09 06:30:45;;;;;;;2.90;2.27;;;;;;;;;;4999092;28;20226;-37
2022/08/09 06:33:13;;;;;;;2.87;2.57;;;;;;;;;;4993116;28;20204;-39
2022/08/09 06:35:40;;;;;;;4.30;2.70;;;;;;;;;;4992238;28;20222;-37
2022/08/09 06:38:07;;;;;;;2.30;2.10;;;;;;;;;;5009978;28;20237;-39
2022/08/09 06:40:34;;;;;;;4.07;2.30;;;;;;;;;;5006307;28;20209;-40
2022/08/09 06:43:02;;;;;;;2.33;2.13;;;;;;;;;;4992606;28;20215;-40
2022/08/09 06:45:29;;;;;;;2.33;2.13;;;;;;;;;;4995761;28;20218;-38
2022/08/09 06:47:56;;;;;;;2.13;2.03;;;;;;;;;;4994584;28;20231;-38
2022/08/09 06:50:25;;;;;;;6.07;2.20;;;;;;;;;;4992473;28;20211;-35
2022/08/09 06:52:52;;;;;;;7.00;2.10;;;;;;;;;;4998448;28;20208;-33
2022/08/09 06:55:20;;;;;;;5.83;2.77;;;;;;;;;;5008177;28;20200;-40
2022/08/09 06:57:47;;;;;;;2.23;2.00;;;;;;;;;;4992717;28;20232;-40
2022/08/09 07:00:14;;;;;;;4.18;1.80;;;;;;;;;;4998985;28;20207;-40
2022/08/09 07:02:43;;;;;;;2.63;1.80;;;;;;;;;;4993139;28;20211;-34
2022/08/09 07:05:10;;;;;;;1.85;1.75;;;;;;;;;;5011312;28;20259;-39
2022/08/09 07:07:38;;;;;;;2.65;2.00;;;;;;;;;;4996620;28;20225;-35
2022/08/09 07:10:06;;;;;;;2.63;1.90;;;;;;;;;;5009968;28;20219;-34
2022/08/09 07:12:33;;;;;;;4.18;2.00;;;;;;;;;;5012036;28;20225;-42
2022/08/09 07:15:02;;;;;;;1.50;1.40;;;;;;;;;;5004939;28;20263;-38
2022/08/09 07:17:29;;;;;;;2.15;1.50;;;;;;;;;;4992344;28;20270;-35
2022/08/09 07:19:56;;;;;;;1.65;1.55;;;;;;;;;;4991995;28;20208;-36
2022/08/09 07:22:23;;;;;;;2.08;1.50;;;;;;;;;;4993557;28;20210;-39
2022/08/09 07:24:52;;;;;;;1.77;1.38;;;;;;;;;;5001877;28;20226;-35
2022/08/09 07:27:19;;;;;;;3.13;1.35;;;;;;;;;;5016004;28;20234;-34
2022/08/09 07:29:46;;;;;;;5.05;1.60;;;;;;;;;;5015899;28;20209;-37
2022/08/09 07:32:13;;;;;;;1.85;1.67;;;;;;;;;;5002189;28;20223;-40
2022/08/09 07:34:41;;;;;;;1.50;1.40;;;;;;;;;;4995523;28;20207;-40
2022/08/09 07:37:08;;;;;;;1.73;1.63;;;;;;;;;;4998858;28;20223;-35
2022/08/09 07:39:35;;;;;;;3.85;1.50;;;;;;;;;;5000916;28;20200;-40
2022/08/09 07:42:04;;;;;;;4.68;1.60;;;;;;;;;;4998675;28;20199;-38
2022/08/09 07:44:31;;;;;;;2.75;1.48;;;;;;;;;;5013319;28;20231;-38
2022/08/09 07:46:58;;;;;;;3.03;1.33;;;;;;;;;;5009765;28;20227;-37
2022/08/09 07:49:25;;;;;;;1.80;1.70;;;;;;;;;;5007466;28;20222;-40
2022/08/09 07:51:52;;;;;;;2.05;1.77;;;;;;;;;;5011448;28;20214;-39
2022/08/09 07:54:19;;;;;;;1.20;1.10;;;;;;;;;;5005522;28;20211;-37
2022/08/09 07:56:46;;;;;;;1.75;1.63;;;;;;;;;;4999878;28;20234;-42
2022/08/09 07:59:15;;;;;;;2.47;1.58;;;;;;;;;;5011891;28;20211;-37
2022/08/09 08:01:42;;;;;;;5.53;1.50;;;;;;;;;;5003286;28;20215;-36
2022/08/09 08:04:09;;;;;;;2.80;1.38;;;;;;;;;;5004790;28;20228;-37
2022/08/09 08:06:36;;;;;;;1.33;1.27;;;;;;;;;;5007013;28;20223;-39
2022/08/09 08:09:03;;;;;;;2.08;1.10;;;;;;;;;;4996264;28;20218;-39
2022/08/09 08:11:30;;;;;;;1.88;1.30;;;;;;;;;;5001415;28;20208;-40
2022/08/09 08:13:57;;;;;;;3.03;1.52;;;;;;;;;;4993581;28;20206;-39
2022/08/09 08:16:26;;;;;;;1.48;1.38;;;;;;;;;;5001299;28;20215;-36
2022/08/09 08:18:53;;;;;;;1.67;1.23;;;;;;;;;;5003051;28;20211;-34
2022/08/09 08:21:20;;;;;;;1.30;1.20;;;;;;;;;;4994385;28;20216;-35
2022/08/09 08:23:47;;;;;;;3.22;1.27;;;;;;;;;;4994729;28;20234;-37
2022/08/09 08:26:14;;;;;;;1.40;1.40;;;;;;;;;;4994992;28;20226;-40
2022/08/09 08:28:41;;;;;;;1.33;1.30;;;;;;;;;;4994527;28;20222;-35
2022/08/09 08:31:09;;;;;;;1.40;1.30;;;;;;;;;;5002113;28;20208;-38
2022/08/09 08:33:37;;;;;;;6.75;1.27;;;;;;;;;;5009460;28;20203;-34
2022/08/09 08:36:05;;;;;;;1.40;1.30;;;;;;;;;;5008554;28;20207;-43
2022/08/09 08:38:32;;;;;;;1.45;1.25;;;;;;;;;;5007028;28;20242;-34
2022/08/09 08:40:59;;;;;;;1.20;1.10;;;;;;;;;;5003808;28;20203;-35
2022/08/09 08:43:27;;;;;;;2.08;1.40;;;;;;;;;;5013542;28;20214;-40
2022/08/09 08:45:55;;;;;;;3.22;1.25;;;;;;;;;;5006757;28;20278;-35
2022/08/09 08:48:23;;;;;;;2.30;1.40;;;;;;;;;;5004424;28;20237;-34
2022/08/09 08:50:51;;;;;;;1.45;1.35;;;;;;;;;;5011704;28;20207;-36
2022/08/09 08:53:18;;;;;;;3.35;1.48;;;;;;;;;;5010389;28;20415;-39
2022/08/09 08:55:46;;;;;;;1.50;1.40;;;;;;;;;;5010745;28;20199;-38
2022/08/09 08:58:13;;;;;;;4.50;1.23;;;;;;;;;;5008607;28;20303;-37
2022/08/09 09:00:41;;;;;;;3.47;1.70;;;;;;;;;;5007520;28;20211;-39
2022/08/09 09:03:08;;;;;;;1.55;1.45;;;;;;;;;;5005600;28;20301;-35
2022/08/09 09:05:35;;;;;;;1.50;1.40;;;;;;;;;;5012101;28;20215;-34
2022/08/09 09:08:05;;;;;;;2.70;1.58;;;;;;;;;;4995677;28;20219;-36
2022/08/09 09:10:33;;;;;;;1.30;1.20;;;;;;;;;;5013442;28;20202;-32
2022/08/09 09:13:00;;;;;;;1.33;1.27;;;;;;;;;;4994108;28;20218;-41
2022/08/09 09:15:27;;;;;;;1.77;1.30;;;;;;;;;;5003381;28;20210;-38
2022/08/09 09:17:54;;;;;;;1.63;1.20;;;;;;;;;;5005363;28;20223;-41
2022/08/09 09:20:21;;;;;;;1.98;1.33;;;;;;;;;;5002738;28;20213;-38
2022/08/09 09:22:53;;;;;;;1.77;1.35;;;;;;;;;;5000173;28;20211;-39
2022/08/09 09:25:34;;;;;;;2.70;1.60;;;;;;;;;;5001310;28;20219;-38
2022/08/09 09:28:13;;;;;;;1.38;1.38;;;;;;;;;;4994164;28;20227;-35
2022/08/09 09:30:53;;;;;;;1.30;1.30;;;;;;;;;;4999808;28;20207;-42
2022/08/09 09:35:52;;;;;;;2.45;1.40;;;;;;;;;;5047561;28;20218;-39
2022/08/09 09:38:21;;;;;;;1.27;1.17;;;;;;;;;;5049026;28;20230;-35
2022/08/09 09:40:50;;;;;;;1.98;1.50;;;;;;;;;;5053163;28;20206;-34
2022/08/09 09:43:19;;;;;;;4.75;1.70;;;;;;;;;;5049299;28;20213;-34
2022/08/09 09:45:47;;;;;;;2.42;1.30;;;;;;;;;;5036739;28;20225;-39
2022/08/09 09:48:15;;;;;;;2.75;1.58;;;;;;;;;;5051994;28;20255;-36
2022/08/09 09:50:42;;;;;;;5.57;1.60;;;;;;;;;;5050045;28;20209;-38
2022/08/09 09:53:14;;;;;;;1.40;1.30;;;;;;;;;;5046208;28;20202;-39
2022/08/09 09:55:52;;;;;;;3.80;1.52;;;;;;;;;;5052579;28;20247;-37
2022/08/09 09:58:20;;;;;;;2.15;1.63;;;;;;;;;;5045977;28;20228;-36
2022/08/09 10:00:48;;;;;;;1.67;1.58;;;;;;;;;;5045030;28;20233;-35
2022/08/09 10:03:15;;;;;;;2.53;1.35;;;;;;;;;;5051601;28;20198;-42
2022/08/09 10:05:58;;;;;;;1.98;1.30;;;;;;;;;;5049109;28;20225;-39
2022/08/09 10:08:26;;;;;;;3.00;1.55;;;;;;;;;;5046509;28;20221;-37
2022/08/09 10:10:54;;;;;;;2.47;1.45;;;;;;;;;;5050887;28;20194;-37
2022/08/09 10:13:21;;;;;;;1.33;1.30;;;;;;;;;;5052077;28;21272;-35
2022/08/09 10:15:49;;;;;;;1.40;1.30;;;;;;;;;;5045421;28;20216;-38
2022/08/09 10:18:16;;;;;;;4.40;1.63;;;;;;;;;;5042425;28;20236;-34
2022/08/09 10:20:44;;;;;;;1.25;1.25;;;;;;;;;;5049325;28;20202;-38
2022/08/09 10:23:15;;;;;;;5.97;1.48;;;;;;;;;;5040998;28;20286;-41
2022/08/09 10:25:44;;;;;;;2.17;1.70;;;;;;;;;;5050172;28;20225;-37
2022/08/09 10:28:12;;;;;;;1.83;1.50;;;;;;;;;;5052116;28;20260;-41
2022/08/09 10:30:39;;;;;;;1.60;1.23;;;;;;;;;;5047536;28;20206;-39
2022/08/09 10:33:07;;;;;;;3.47;1.42;;;;;;;;;;5051410;28;20209;-37
2022/08/09 10:35:35;;;;;;;2.58;1.40;;;;;;;;;;5051816;28;20205;-38
2022/08/09 10:38:02;;;;;;;2.15;1.30;;;;;;;;;;5045163;28;20239;-37
2022/08/09 10:40:38;;;;;;;4.15;1.67;;;;;;;;;;5052333;28;20210;-37
2022/08/09 10:43:06;;;;;;;2.45;1.45;;;;;;;;;;5052488;28;20188;-34
2022/08/09 10:45:34;;;;;;;4.25;0.95;;;;;;;;;;5047692;28;20245;-36
2022/08/09 10:48:04;;;;;;;1.67;1.20;;;;;;;;;;5050054;28;20226;-40
2022/08/09 10:53:27;;;;;;;2.85;1.35;;;;;;;;;;5045100;28;20206;-37
2022/08/09 10:56:09;;;;;;;1.48;1.38;;;;;;;;;;5048691;28;20207;-34
2022/08/09 10:58:36;;;;;;;1.60;1.50;;;;;;;;;;5049029;28;20232;-38
2022/08/09 11:01:05;;;;;;;2.17;1.60;;;;;;;;;;5048244;28;20219;-37
2022/08/09 11:03:32;;;;;;;10.30;2.03;;;;;;;;;;5051627;28;20220;-40
2022/08/09 11:06:18;;;;;;;3.28;1.17;;;;;;;;;;5048451;28;20295;-37
2022/08/09 11:08:46;;;;;;;1.25;1.15;;;;;;;;;;5049380;28;20227;-35
2022/08/09 11:11:13;;;;;;;1.45;1.30;;;;;;;;;;5049463;28;20213;-40
2022/08/09 11:13:40;;;;;;;1.88;1.30;;;;;;;;;;5048862;28;20209;-38
2022/08/09 11:16:26;;;;;;;2.15;1.40;;;;;;;;;;5043066;28;20202;-38
2022/08/09 11:18:54;;;;;;;1.30;1.23;;;;;;;;;;5051890;28;20204;-37
2022/08/09 11:21:40;;;;;;;3.40;1.48;;;;;;;;;;5048302;28;20209;-40
2022/08/09 11:24:09;;;;;;;1.13;1.13;;;;;;;;;;5051712;28;20211;-39
2022/08/09 11:26:39;;;;;;;2.42;1.52;;;;;;;;;;5049656;28;20235;-38
2022/08/09 11:29:06;;;;;;;26.15;3.92;;;;;;;;;;5048985;28;20204;-38
2022/08/09 11:31:44;;;;;;;3.83;1.50;;;;;;;;;;5052679;28;20212;-38
2022/08/09 11:34:23;;;;;;;2.70;1.17;;;;;;;;;;5052559;28;20214;-37
2022/08/09 11:36:50;;;;;;;1.27;1.17;;;;;;;;;;5051159;28;20232;-35
2022/08/09 11:39:17;;;;;;;2.80;1.60;;;;;;;;;;5055352;28;20213;-34
2022/08/09 11:41:45;;;;;;;1.40;1.30;;;;;;;;;;5068036;28;20211;-40
2022/08/09 11:44:12;;;;;;;1.35;1.25;;;;;;;;;;5052189;28;20206;-38
2022/08/09 11:46:52;;;;;;;2.15;1.35;;;;;;;;;;5049868;28;20241;-41
2022/08/09 11:49:40;;;;;;;3.22;1.20;;;;;;;;;;5052978;28;20209;-36
2022/08/09 11:52:08;;;;;;;1.67;1.42;;;;;;;;;;5047830;28;20205;-37
2022/08/09 11:54:35;;;;;;;1.20;1.20;;;;;;;;;;5053181;28;20220;-36
2022/08/09 12:00:12;;;;;;;1.40;1.30;;;;;;;;;;5051861;28;20185;-38
2022/08/09 12:02:40;;;;;;;2.08;1.40;;;;;;;;;;5052791;28;20205;-37
2022/08/09 12:05:08;;;;;;;1.45;1.23;;;;;;;;;;5052719;28;20225;-36
2022/08/09 12:07:36;;;;;;;1.30;1.15;;;;;;;;;;5047641;28;20232;-37
2022/08/09 12:10:03;;;;;;;1.50;1.40;;;;;;;;;;5054101;28;20221;-39
2022/08/09 12:12:44;;;;;;;1.67;1.33;;;;;;;;;;5055833;28;20209;-39
2022/08/09 12:15:19;;;;;;;1.70;1.60;;;;;;;;;;5056637;28;20194;-40
2022/08/09 12:17:47;;;;;;;0.98;0.98;;;;;;;;;;5044990;28;20239;-39
2022/08/09 12:20:16;;;;;;;1.00;1.00;;;;;;;;;;5055466;28;20201;-38
2022/08/09 12:22:44;;;;;;;1.20;1.15;;;;;;;;;;5053379;28;20202;-36
2022/08/09 12:25:11;;;;;;;4.97;1.15;;;;;;;;;;5055751;28;20229;-39
2022/08/09 12:27:38;;;;;;;1.30;1.20;;;;;;;;;;5056118;28;20232;-37
2022/08/09 12:30:06;;;;;;;1.45;1.33;;;;;;;;;;5046067;28;20279;-36
2022/08/09 12:32:34;;;;;;;2.50;1.20;;;;;;;;;;5041391;28;20235;-30
2022/08/09 12:35:02;;;;;;;2.75;1.30;;;;;;;;;;5053867;28;20209;-39
2022/08/09 12:37:34;;;;;;;1.92;1.20;;;;;;;;;;5046332;28;20222;-36
2022/08/09 12:40:01;;;;;;;2.13;1.00;;;;;;;;;;5051600;28;20209;-41
2022/08/09 12:42:28;;;;;;;1.15;1.05;;;;;;;;;;5053991;28;20202;-41
2022/08/09 12:44:56;;;;;;;7.50;2.03;;;;;;;;;;5051037;28;20205;-35
2022/08/09 12:47:23;;;;;;;7.03;3.08;;;;;;;;;;5049822;28;20891;-41
2022/08/09 12:52:38;;;;;;;5.60;3.08;;;;;;;;;;5041515;28;20210;-38
2022/08/09 12:55:08;;;;;;;4.47;2.05;;;;;;;;;;5050225;28;20205;-37
2022/08/09 12:57:36;;;;;;;5.70;1.67;;;;;;;;;;5050683;28;20243;-34
2022/08/09 13:00:11;;;;;;;3.45;1.50;;;;;;;;;;5049228;28;20214;-37
2022/08/09 13:02:47;;;;;;;1.00;1.00;;;;;;;;;;5049649;28;20212;-35
2022/08/09 13:05:15;;;;;;;2.83;1.25;;;;;;;;;;5058861;28;20214;-33
2022/08/09 13:07:44;;;;;;;2.67;1.10;;;;;;;;;;5058546;28;20221;-34
2022/08/09 13:10:11;;;;;;;6.43;1.40;;;;;;;;;;5058652;28;20232;-38
2022/08/09 13:12:47;;;;;;;2.95;1.38;;;;;;;;;;5064349;28;20205;-38
2022/08/09 13:15:14;;;;;;;7.43;1.25;;;;;;;;;;5048910;28;20202;-37
2022/08/09 13:17:42;;;;;;;1.55;1.10;;;;;;;;;;5042629;28;20217;-38
2022/08/09 13:20:10;;;;;;;2.03;1.13;;;;;;;;;;5052081;28;20663;-39
2022/08/09 13:22:47;;;;;;;1.63;1.13;;;;;;;;;;5053723;28;20289;-34
2022/08/09 13:25:16;;;;;;;4.43;1.40;;;;;;;;;;5051754;28;20193;-39
2022/08/09 13:27:43;;;;;;;1.80;1.25;;;;;;;;;;5052299;28;20228;-37
2022/08/09 13:30:15;;;;;;;1.85;1.75;;;;;;;;;;5047855;28;20214;-40
2022/08/09 13:32:44;;;;;;;1.95;1.17;;;;;;;;;;5049574;28;20293;-36
2022/08/09 13:35:11;;;;;;;2.33;1.05;;;;;;;;;;5052377;28;20210;-37
2022/08/09 13:37:38;;;;;;;2.83;1.27;;;;;;;;;;5049169;28;20230;-35
2022/08/09 13:40:07;;;;;;;3.38;1.10;;;;;;;;;;5051896;28;20206;-40
2022/08/09 13:42:35;;;;;;;1.83;1.10;;;;;;;;;;5052364;28;20261;-33
2022/08/09 13:45:03;;;;;;;1.58;1.20;;;;;;;;;;5052699;28;20205;-35
2022/08/09 13:47:31;;;;;;;3.25;1.00;;;;;;;;;;5038522;28;20233;-35
2022/08/09 13:49:58;;;;;;;1.75;0.98;;;;;;;;;;5048959;28;20244;-37
2022/08/09 13:52:26;;;;;;;0.90;0.90;;;;;;;;;;5041177;28;20202;-36
2022/08/09 13:54:53;;;;;;;5.18;1.15;;;;;;;;;;5049985;28;20209;-34
2022/08/09 13:57:20;;;;;;;0.95;0.95;;;;;;;;;;5052502;28;20218;-36
2022/08/09 13:59:50;;;;;;;1.42;1.33;;;;;;;;;;5051937;28;20232;-33
2022/08/09 14:02:17;;;;;;;1.00;1.00;;;;;;;;;;5046486;28;20209;-36
2022/08/09 14:04:44;;;;;;;1.05;1.00;;;;;;;;;;5051776;28;20206;-38
2022/08/09 14:07:11;;;;;;;6.95;1.30;;;;;;;;;;5045843;28;20234;-37
2022/08/09 14:09:38;;;;;;;1.23;1.13;;;;;;;;;;5045286;28;20201;-40
2022/08/09 14:12:06;;;;;;;0.93;0.93;;;;;;;;;;5032458;28;20523;-36
2022/08/09 14:14:33;;;;;;;1.02;1.00;;;;;;;;;;5045080;28;20208;-34
2022/08/09 14:17:01;;;;;;;1.10;1.10;;;;;;;;;;5048785;28;20213;-35
2022/08/09 14:19:28;;;;;;;1.10;1.00;;;;;;;;;;5051657;28;20217;-39
2022/08/09 14:21:56;;;;;;;2.95;1.05;;;;;;;;;;5038250;28;20210;-38
2022/08/09 14:24:23;;;;;;;1.10;1.10;;;;;;;;;;5050260;28;20214;-37
2022/08/09 14:26:50;;;;;;;1.20;1.00;;;;;;;;;;5051759;28;20221;-37
2022/08/09 14:29:18;;;;;;;2.00;0.93;;;;;;;;;;5043306;28;20212;-40
2022/08/09 14:31:45;;;;;;;1.00;1.00;;;;;;;;;;5044564;28;20213;-35
2022/08/09 14:34:14;;;;;;;1.27;1.10;;;;;;;;;;5051233;28;20226;-37
2022/08/09 14:36:42;;;;;;;1.00;1.00;;;;;;;;;;5042606;28;20291;-38
2022/08/09 14:39:09;;;;;;;1.85;0.95;;;;;;;;;;5047523;28;20233;-37
2022/08/09 14:41:36;;;;;;;1.70;1.20;;;;;;;;;;5041947;28;20198;-36
2022/08/09 14:44:03;;;;;;;2.20;1.05;;;;;;;;;;5047169;28;20205;-37
2022/08/09 14:46:30;;;;;;;3.03;1.15;;;;;;;;;;5048507;28;20225;-37
2022/08/09 14:48:57;;;;;;;1.30;1.20;;;;;;;;;;5040539;28;20206;-35
2022/08/09 14:51:26;;;;;;;1.15;1.08;;;;;;;;;;5047375;28;20210;-35
2022/08/09 14:53:53;;;;;;;2.00;0.98;;;;;;;;;;5048185;28;20205;-39
2022/08/09 14:56:20;;;;;;;0.88;0.88;;;;;;;;;;5051685;28;20202;-39
2022/08/09 14:58:48;;;;;;;1.30;1.20;;;;;;;;;;5051181;28;20237;-38
2022/08/09 15:01:15;;;;;;;1.00;1.00;;;;;;;;;;5045003;28;20205;-33
2022/08/09 15:03:42;;;;;;;1.75;1.00;;;;;;;;;;5049466;28;20197;-35
2022/08/09 15:06:10;;;;;;;1.05;0.80;;;;;;;;;;5051334;28;20307;-36
2022/08/09 15:08:39;;;;;;;1.00;1.00;;;;;;;;;;5053781;28;20233;-34